Time;durP1;ratioP1;P1;durP2;ratioP2;P2;SDS_P1;SDS_P2;PMS_P1;PMS_P2;Temp;Humidity;BMP_temperature;BMP_pressure;BME280_temperature;BME280_humidity;BME280_pressure;Samples;Min_cycle;Max_cycle;Signal;HPM_P1;HPM_P2
2022/10/23 00:00:56;;;;;;;37.75;15.30;;;;;;;;;;5059666;28;20043;-67
2022/10/23 00:03:22;;;;;;;29.20;16.02;;;;;;;;;;5060959;28;20129;-66
2022/10/23 00:05:48;;;;;;;34.67;15.80;;;;;;;;;;5058954;28;20614;-67
2022/10/23 00:08:14;;;;;;;32.47;13.90;;;;;;;;;;5059163;28;20044;-67
2022/10/23 00:10:41;;;;;;;37.33;14.98;;;;;;;;;;5058575;28;20059;-66
2022/10/23 00:13:08;;;;;;;26.70;12.90;;;;;;;;;;5060882;28;20055;-66
2022/10/23 00:15:35;;;;;;;31.85;12.10;;;;;;;;;;5059978;28;20622;-66
2022/10/23 00:18:01;;;;;;;39.33;13.60;;;;;;;;;;5073376;28;20048;-66
2022/10/23 00:20:27;;;;;;;39.05;13.63;;;;;;;;;;5060277;28;20135;-67
2022/10/23 00:22:53;;;;;;;32.60;13.90;;;;;;;;;;5064040;28;20048;-67
2022/10/23 00:25:20;;;;;;;36.17;14.23;;;;;;;;;;5061459;28;20128;-66
2022/10/23 00:27:46;;;;;;;33.35;13.90;;;;;;;;;;5062540;28;20045;-66
2022/10/23 00:30:13;;;;;;;30.17;13.65;;;;;;;;;;5055563;28;20124;-66
2022/10/23 00:32:39;;;;;;;37.28;15.85;;;;;;;;;;5059580;28;20053;-66
2022/10/23 00:35:05;;;;;;;37.85;17.02;;;;;;;;;;5054846;28;20044;-67
2022/10/23 00:37:31;;;;;;;36.75;17.38;;;;;;;;;;5059431;28;20063;-66
2022/10/23 00:39:57;;;;;;;30.92;16.00;;;;;;;;;;5060604;28;20036;-66
2022/10/23 00:42:24;;;;;;;48.80;17.63;;;;;;;;;;5058660;28;20045;-66
2022/10/23 00:44:50;;;;;;;32.58;14.90;;;;;;;;;;5054399;28;20056;-67
2022/10/23 00:47:16;;;;;;;36.63;16.17;;;;;;;;;;5058156;28;20056;-66
2022/10/23 00:49:42;;;;;;;55.38;15.73;;;;;;;;;;5057955;28;20071;-67
2022/10/23 00:52:11;;;;;;;108.97;16.50;;;;;;;;;;5091123;28;20101;-66
2022/10/23 00:54:39;;;;;;;41.33;16.13;;;;;;;;;;5060832;28;20415;-67
2022/10/23 00:57:06;;;;;;;32.22;15.45;;;;;;;;;;5056921;28;20044;-66
2022/10/23 00:59:33;;;;;;;30.38;13.10;;;;;;;;;;5090382;28;20044;-66
2022/10/23 01:01:59;;;;;;;44.95;14.45;;;;;;;;;;5054484;28;20071;-66
2022/10/23 01:04:26;;;;;;;36.13;14.50;;;;;;;;;;5050527;28;20053;-66
2022/10/23 01:07:11;;;;;;;36.78;15.15;;;;;;;;;;5072057;28;20056;-66
2022/10/23 01:09:39;;;;;;;64.93;13.57;;;;;;;;;;5085400;27;20040;-66
2022/10/23 01:12:06;;;;;;;75.55;12.43;;;;;;;;;;5056046;28;20052;-66
2022/10/23 01:14:39;;;;;;;39.00;13.93;;;;;;;;;;5059146;28;20044;-66
2022/10/23 01:17:12;;;;;;;34.55;16.38;;;;;;;;;;5084624;28;20067;-67
2022/10/23 01:20:00;;;;;;;39.20;16.70;;;;;;;;;;5055025;28;20399;-66
2022/10/23 01:22:37;;;;;;;32.42;18.70;;;;;;;;;;5059065;28;20119;-66
2022/10/23 01:25:10;;;;;;;31.73;16.55;;;;;;;;;;5055583;28;20044;-66
2022/10/23 01:27:40;;;;;;;38.50;17.70;;;;;;;;;;5061820;28;20407;-67
2022/10/23 01:30:08;;;;;;;43.72;19.77;;;;;;;;;;5063566;28;20044;-66
2022/10/23 01:32:34;;;;;;;39.28;19.17;;;;;;;;;;5057985;28;20040;-66
2022/10/23 01:35:04;;;;;;;43.75;20.17;;;;;;;;;;5059187;28;20036;-66
2022/10/23 01:37:35;;;;;;;36.83;18.65;;;;;;;;;;5059463;28;20087;-67
2022/10/23 01:40:04;;;;;;;52.58;19.83;;;;;;;;;;5053043;28;20179;-67
2022/10/23 01:42:34;;;;;;;30.88;16.33;;;;;;;;;;5093003;28;20067;-66
2022/10/23 01:45:06;;;;;;;34.05;17.90;;;;;;;;;;5056918;28;20171;-66
2022/10/23 01:47:34;;;;;;;41.95;20.27;;;;;;;;;;5060087;28;20044;-66
2022/10/23 01:50:02;;;;;;;48.15;20.75;;;;;;;;;;5059770;28;20040;-66
2022/10/23 01:52:28;;;;;;;50.20;20.73;;;;;;;;;;5055229;28;20052;-66
2022/10/23 01:54:56;;;;;;;52.40;21.90;;;;;;;;;;5054210;28;20040;-66
2022/10/23 01:57:23;;;;;;;49.17;21.08;;;;;;;;;;5087070;28;20056;-66
2022/10/23 01:59:51;;;;;;;42.83;21.48;;;;;;;;;;5057224;28;20059;-66
2022/10/23 02:02:18;;;;;;;39.42;21.02;;;;;;;;;;5058410;28;20040;-67
2022/10/23 02:04:49;;;;;;;41.70;21.00;;;;;;;;;;5058681;28;20081;-66
2022/10/23 02:07:15;;;;;;;39.83;18.60;;;;;;;;;;5059137;28;20036;-67
2022/10/23 02:09:41;;;;;;;48.33;22.02;;;;;;;;;;5054961;28;20127;-66
2022/10/23 02:12:09;;;;;;;37.35;19.33;;;;;;;;;;5056459;28;20036;-66
2022/10/23 02:14:40;;;;;;;40.45;20.23;;;;;;;;;;5056939;28;20068;-67
2022/10/23 02:17:11;;;;;;;36.83;20.08;;;;;;;;;;5062074;28;20122;-66
2022/10/23 02:19:46;;;;;;;44.95;21.58;;;;;;;;;;5057990;28;20060;-66
2022/10/23 02:22:16;;;;;;;41.45;19.20;;;;;;;;;;5089701;28;20069;-66
2022/10/23 02:24:45;;;;;;;54.53;20.70;;;;;;;;;;5059525;28;20041;-67
2022/10/23 02:27:13;;;;;;;41.58;20.65;;;;;;;;;;5059618;28;20502;-66
2022/10/23 02:29:43;;;;;;;45.75;22.67;;;;;;;;;;5056664;28;20049;-67
2022/10/23 02:32:10;;;;;;;42.05;21.25;;;;;;;;;;5060909;28;20097;-67
2022/10/23 02:34:37;;;;;;;46.65;21.33;;;;;;;;;;5059323;28;20086;-66
2022/10/23 02:37:03;;;;;;;41.10;21.17;;;;;;;;;;5052634;28;20090;-67
2022/10/23 02:39:29;;;;;;;41.38;22.15;;;;;;;;;;5054588;28;20045;-66
2022/10/23 02:41:59;;;;;;;42.85;23.67;;;;;;;;;;5056774;28;20045;-67
2022/10/23 02:44:30;;;;;;;40.35;22.80;;;;;;;;;;5057665;28;20041;-66
2022/10/23 02:47:04;;;;;;;44.92;23.40;;;;;;;;;;5057269;28;20141;-66
2022/10/23 02:49:37;;;;;;;56.40;24.85;;;;;;;;;;5053974;28;20055;-67
2022/10/23 02:52:10;;;;;;;52.15;23.00;;;;;;;;;;5057189;28;20099;-66
2022/10/23 02:54:46;;;;;;;41.63;21.55;;;;;;;;;;5056273;28;20093;-66
2022/10/23 02:57:19;;;;;;;49.67;23.73;;;;;;;;;;5052812;28;20717;-66
2022/10/23 02:59:56;;;;;;;40.60;22.15;;;;;;;;;;5059114;28;20047;-66
2022/10/23 03:02:24;;;;;;;45.35;23.17;;;;;;;;;;5058690;28;20160;-67
2022/10/23 03:04:52;;;;;;;47.38;23.08;;;;;;;;;;5057502;28;20403;-66
2022/10/23 03:07:19;;;;;;;48.95;24.75;;;;;;;;;;5056792;28;20475;-66
2022/10/23 03:09:45;;;;;;;44.58;22.70;;;;;;;;;;5086339;28;22029;-66
2022/10/23 03:12:11;;;;;;;51.28;23.10;;;;;;;;;;5054189;28;20071;-66
2022/10/23 03:14:37;;;;;;;57.50;23.88;;;;;;;;;;5055264;28;20143;-66
2022/10/23 03:17:03;;;;;;;50.13;24.80;;;;;;;;;;5050028;28;20086;-66
2022/10/23 03:19:29;;;;;;;55.10;25.35;;;;;;;;;;5068061;28;20055;-67
2022/10/23 03:21:56;;;;;;;44.45;22.60;;;;;;;;;;5057914;28;20032;-66
2022/10/23 03:24:22;;;;;;;43.85;22.92;;;;;;;;;;5056826;28;20935;-66
2022/10/23 03:26:48;;;;;;;46.97;24.58;;;;;;;;;;5074068;28;20037;-66
2022/10/23 03:29:14;;;;;;;45.95;23.38;;;;;;;;;;5059495;28;20083;-66
2022/10/23 03:31:40;;;;;;;46.05;22.92;;;;;;;;;;5087363;28;20044;-66
2022/10/23 03:34:09;;;;;;;41.17;23.20;;;;;;;;;;5054838;28;20329;-66
2022/10/23 03:36:36;;;;;;;51.15;22.95;;;;;;;;;;5057019;28;20174;-66
2022/10/23 03:39:03;;;;;;;45.95;23.30;;;;;;;;;;5055258;28;20070;-66
2022/10/23 03:41:29;;;;;;;42.47;22.52;;;;;;;;;;5058509;28;20384;-66
2022/10/23 03:43:55;;;;;;;47.40;23.33;;;;;;;;;;5058710;28;20044;-66
2022/10/23 03:46:21;;;;;;;41.83;24.30;;;;;;;;;;5058201;28;20048;-66
2022/10/23 03:48:48;;;;;;;45.28;22.98;;;;;;;;;;5060201;28;20132;-66
2022/10/23 03:51:14;;;;;;;41.50;23.27;;;;;;;;;;5060530;28;20052;-66
2022/10/23 03:53:40;;;;;;;48.45;23.98;;;;;;;;;;5077073;28;21904;-66
2022/10/23 03:56:06;;;;;;;44.83;23.88;;;;;;;;;;5059296;28;20105;-66
2022/10/23 03:58:32;;;;;;;47.83;24.13;;;;;;;;;;5058066;28;20095;-66
2022/10/23 04:00:58;;;;;;;48.15;24.05;;;;;;;;;;5056391;28;20040;-66
2022/10/23 04:03:25;;;;;;;44.33;24.15;;;;;;;;;;5056599;28;20464;-67
2022/10/23 04:05:51;;;;;;;48.50;22.85;;;;;;;;;;5059133;28;20032;-66
2022/10/23 04:08:17;;;;;;;48.72;23.67;;;;;;;;;;5058678;28;20106;-66
2022/10/23 04:10:43;;;;;;;38.63;21.67;;;;;;;;;;5085772;28;20835;-66
2022/10/23 04:13:09;;;;;;;50.47;24.35;;;;;;;;;;5054701;28;20049;-66
2022/10/23 04:15:35;;;;;;;39.50;23.52;;;;;;;;;;5061482;28;20101;-67
2022/10/23 04:18:01;;;;;;;43.42;25.23;;;;;;;;;;5061983;28;20044;-66
2022/10/23 04:20:28;;;;;;;50.08;23.95;;;;;;;;;;5059673;28;20041;-66
2022/10/23 04:22:54;;;;;;;49.50;23.85;;;;;;;;;;5056463;28;20048;-67
2022/10/23 04:25:20;;;;;;;39.90;24.05;;;;;;;;;;5056443;28;20089;-66
2022/10/23 04:27:46;;;;;;;41.72;25.08;;;;;;;;;;5058640;28;20060;-67
2022/10/23 04:30:12;;;;;;;52.45;25.73;;;;;;;;;;5061874;28;20040;-67
2022/10/23 04:32:39;;;;;;;44.10;24.90;;;;;;;;;;5058022;28;20068;-66
2022/10/23 04:35:05;;;;;;;46.55;24.70;;;;;;;;;;5059243;28;20163;-66
2022/10/23 04:37:32;;;;;;;48.88;24.73;;;;;;;;;;5059175;28;20224;-66
2022/10/23 04:39:58;;;;;;;49.22;25.40;;;;;;;;;;5056969;28;20381;-66
2022/10/23 04:42:24;;;;;;;42.88;25.45;;;;;;;;;;5055212;28;21042;-66
2022/10/23 04:44:50;;;;;;;38.40;23.67;;;;;;;;;;5058335;28;20052;-67
2022/10/23 04:47:16;;;;;;;49.60;24.33;;;;;;;;;;5057311;28;20055;-66
2022/10/23 04:49:42;;;;;;;44.53;25.10;;;;;;;;;;5055546;28;20048;-66
2022/10/23 04:52:08;;;;;;;41.67;25.85;;;;;;;;;;5060329;28;20194;-66
2022/10/23 04:54:36;;;;;;;39.65;24.98;;;;;;;;;;5058040;28;20052;-67
2022/10/23 04:57:02;;;;;;;46.10;27.17;;;;;;;;;;5056556;28;20040;-67
2022/10/23 04:59:28;;;;;;;38.45;24.60;;;;;;;;;;5054445;28;20205;-66
2022/10/23 05:01:55;;;;;;;45.50;26.52;;;;;;;;;;5059365;28;20060;-67
2022/10/23 05:04:21;;;;;;;45.65;28.33;;;;;;;;;;5063432;28;20052;-66
2022/10/23 05:06:47;;;;;;;49.22;27.38;;;;;;;;;;5056948;28;20080;-66
2022/10/23 05:09:13;;;;;;;53.17;28.60;;;;;;;;;;5063048;28;20392;-67
2022/10/23 05:11:39;;;;;;;58.05;29.08;;;;;;;;;;5063439;28;20055;-66
2022/10/23 05:14:05;;;;;;;56.38;30.02;;;;;;;;;;5058891;28;20117;-66
2022/10/23 05:16:37;;;;;;;50.00;28.98;;;;;;;;;;5060963;28;20068;-66
2022/10/23 05:19:04;;;;;;;59.92;30.88;;;;;;;;;;5057531;28;20049;-66
2022/10/23 05:21:32;;;;;;;43.90;28.25;;;;;;;;;;5061295;28;20048;-67
2022/10/23 05:24:00;;;;;;;52.67;31.27;;;;;;;;;;5091108;28;20052;-66
2022/10/23 05:26:27;;;;;;;57.30;31.80;;;;;;;;;;5090815;28;20051;-67
2022/10/23 05:28:53;;;;;;;54.50;29.02;;;;;;;;;;5085252;28;20047;-66
2022/10/23 05:31:21;;;;;;;53.20;29.35;;;;;;;;;;5059728;28;20068;-66
2022/10/23 05:33:47;;;;;;;46.15;28.98;;;;;;;;;;5055906;28;20123;-66
2022/10/23 05:36:13;;;;;;;49.75;28.52;;;;;;;;;;5059158;28;20059;-66
2022/10/23 05:38:40;;;;;;;60.88;30.20;;;;;;;;;;5057720;28;20139;-67
2022/10/23 05:41:06;;;;;;;58.88;31.75;;;;;;;;;;5084792;28;20065;-66
2022/10/23 05:43:32;;;;;;;54.05;32.05;;;;;;;;;;5057447;28;20072;-66
2022/10/23 05:45:58;;;;;;;58.97;31.63;;;;;;;;;;5055126;28;20096;-66
2022/10/23 05:48:25;;;;;;;55.53;30.25;;;;;;;;;;5054026;28;20535;-66
2022/10/23 05:50:51;;;;;;;58.50;31.05;;;;;;;;;;5059550;28;20102;-66
2022/10/23 05:53:17;;;;;;;56.78;30.42;;;;;;;;;;5060293;28;21556;-66
2022/10/23 05:55:43;;;;;;;50.47;30.65;;;;;;;;;;5058064;28;20108;-66
2022/10/23 05:58:09;;;;;;;59.78;31.55;;;;;;;;;;5056542;28;20041;-66
2022/10/23 06:00:35;;;;;;;58.72;31.45;;;;;;;;;;5058782;28;20063;-66
2022/10/23 06:03:02;;;;;;;63.08;31.70;;;;;;;;;;5088859;28;20048;-68
2022/10/23 06:05:28;;;;;;;59.90;31.20;;;;;;;;;;5062929;28;20040;-67
2022/10/23 06:07:58;;;;;;;54.20;30.60;;;;;;;;;;5063192;28;20384;-66
2022/10/23 06:10:24;;;;;;;52.75;30.25;;;;;;;;;;5064394;28;20361;-66
2022/10/23 06:12:50;;;;;;;59.63;31.75;;;;;;;;;;5066387;28;20499;-66
2022/10/23 06:15:16;;;;;;;51.05;30.30;;;;;;;;;;5063451;28;20543;-66
2022/10/23 06:17:43;;;;;;;58.38;32.97;;;;;;;;;;5064890;28;20102;-66
2022/10/23 06:20:09;;;;;;;52.55;29.73;;;;;;;;;;5063847;28;20412;-66
2022/10/23 06:22:35;;;;;;;56.20;32.72;;;;;;;;;;5060874;28;20051;-66
2022/10/23 06:25:01;;;;;;;54.30;32.08;;;;;;;;;;5061185;28;20044;-66
2022/10/23 06:27:27;;;;;;;55.03;31.13;;;;;;;;;;5062153;28;20048;-66
2022/10/23 06:29:53;;;;;;;53.05;31.05;;;;;;;;;;5091538;28;20040;-66
2022/10/23 06:32:19;;;;;;;52.80;31.85;;;;;;;;;;5061573;28;20051;-66
2022/10/23 06:34:46;;;;;;;58.85;29.75;;;;;;;;;;5054261;28;20055;-67
2022/10/23 06:37:12;;;;;;;56.70;29.55;;;;;;;;;;5061146;28;20047;-66
2022/10/23 06:39:39;;;;;;;60.80;31.30;;;;;;;;;;5058083;28;20150;-66
2022/10/23 06:42:06;;;;;;;56.60;30.92;;;;;;;;;;5054893;28;20093;-66
2022/10/23 06:44:32;;;;;;;53.97;30.63;;;;;;;;;;5058878;28;20055;-66
2022/10/23 06:47:00;;;;;;;48.60;28.77;;;;;;;;;;5075812;28;20112;-66
2022/10/23 06:49:26;;;;;;;49.88;29.48;;;;;;;;;;5059700;28;20570;-66
2022/10/23 06:51:53;;;;;;;49.50;29.60;;;;;;;;;;5058742;28;20471;-66
2022/10/23 06:54:19;;;;;;;58.35;29.77;;;;;;;;;;5036641;28;20044;-66
2022/10/23 06:56:45;;;;;;;55.92;30.60;;;;;;;;;;5061571;28;20183;-66
2022/10/23 06:59:13;;;;;;;51.13;29.20;;;;;;;;;;5055510;28;20037;-67
2022/10/23 07:01:39;;;;;;;54.35;28.27;;;;;;;;;;5056414;28;20212;-67
2022/10/23 07:04:05;;;;;;;49.78;28.60;;;;;;;;;;5056363;28;20079;-67
2022/10/23 07:06:31;;;;;;;51.83;28.75;;;;;;;;;;5089064;28;20150;-66
2022/10/23 07:08:58;;;;;;;50.17;27.50;;;;;;;;;;5058389;28;20519;-66
2022/10/23 07:11:24;;;;;;;49.67;28.25;;;;;;;;;;5058874;28;20052;-66
2022/10/23 07:13:51;;;;;;;57.90;29.95;;;;;;;;;;5094466;28;20036;-66
2022/10/23 07:16:18;;;;;;;48.83;28.65;;;;;;;;;;5059538;28;20094;-67
2022/10/23 07:18:44;;;;;;;42.65;26.95;;;;;;;;;;5062756;28;20098;-66
2022/10/23 07:21:11;;;;;;;47.25;28.77;;;;;;;;;;5059234;28;20059;-67
2022/10/23 07:23:37;;;;;;;45.35;28.15;;;;;;;;;;5059357;28;20139;-66
2022/10/23 07:26:04;;;;;;;50.70;27.05;;;;;;;;;;5060387;28;20049;-66
2022/10/23 07:28:31;;;;;;;52.25;29.30;;;;;;;;;;5061053;28;20139;-66
2022/10/23 07:30:58;;;;;;;50.83;28.02;;;;;;;;;;5059607;28;20056;-67
2022/10/23 07:33:25;;;;;;;50.55;27.35;;;;;;;;;;5062506;28;20564;-66
2022/10/23 07:35:51;;;;;;;42.05;25.75;;;;;;;;;;5061014;28;20371;-67
2022/10/23 07:38:17;;;;;;;60.95;27.55;;;;;;;;;;5061024;28;20060;-66
2022/10/23 07:40:44;;;;;;;47.92;26.73;;;;;;;;;;5058157;28;20687;-66
2022/10/23 07:43:10;;;;;;;50.63;27.38;;;;;;;;;;5060812;28;20124;-67
2022/10/23 07:45:36;;;;;;;47.03;26.20;;;;;;;;;;5063686;28;20040;-66
2022/10/23 07:48:02;;;;;;;43.60;26.27;;;;;;;;;;5096406;28;20068;-66
2022/10/23 07:50:29;;;;;;;43.80;26.13;;;;;;;;;;5065196;28;20391;-66
2022/10/23 07:52:57;;;;;;;48.22;26.75;;;;;;;;;;5066100;28;20074;-66
2022/10/23 07:55:23;;;;;;;47.50;25.85;;;;;;;;;;5062144;28;20040;-66
2022/10/23 07:57:49;;;;;;;47.08;26.13;;;;;;;;;;5066001;28;20045;-66
2022/10/23 08:00:16;;;;;;;42.65;24.65;;;;;;;;;;5067259;28;20048;-66
2022/10/23 08:02:42;;;;;;;44.60;25.40;;;;;;;;;;5061213;28;20084;-66
2022/10/23 08:05:08;;;;;;;43.58;25.38;;;;;;;;;;5092913;28;20467;-66
2022/10/23 08:07:34;;;;;;;47.70;24.80;;;;;;;;;;5064312;28;20068;-66
2022/10/23 08:10:00;;;;;;;45.30;25.15;;;;;;;;;;5063520;28;20048;-66
2022/10/23 08:12:26;;;;;;;42.22;25.40;;;;;;;;;;5064097;28;20090;-66
2022/10/23 08:14:53;;;;;;;41.35;24.45;;;;;;;;;;5065714;28;20106;-66
2022/10/23 08:17:19;;;;;;;44.15;24.88;;;;;;;;;;5065973;28;20045;-66
2022/10/23 08:19:47;;;;;;;40.90;23.25;;;;;;;;;;5064888;28;20068;-67
2022/10/23 08:22:13;;;;;;;37.72;23.65;;;;;;;;;;5066032;28;20123;-66
2022/10/23 08:24:39;;;;;;;47.17;24.13;;;;;;;;;;5063628;28;20062;-66
2022/10/23 08:27:06;;;;;;;39.03;22.60;;;;;;;;;;5066564;28;20040;-66
2022/10/23 08:29:32;;;;;;;39.08;22.42;;;;;;;;;;5066753;28;20487;-66
2022/10/23 08:31:58;;;;;;;37.38;22.02;;;;;;;;;;5064985;28;20060;-66
2022/10/23 08:34:24;;;;;;;38.67;22.55;;;;;;;;;;5064890;28;20109;-66
2022/10/23 08:36:50;;;;;;;40.20;21.88;;;;;;;;;;5065527;28;20051;-66
2022/10/23 08:39:16;;;;;;;39.45;21.85;;;;;;;;;;5062373;28;20036;-66
2022/10/23 08:41:47;;;;;;;41.53;21.08;;;;;;;;;;5062388;28;20110;-66
2022/10/23 08:44:14;;;;;;;32.50;19.90;;;;;;;;;;5064123;28;20054;-67
2022/10/23 08:46:42;;;;;;;35.90;19.13;;;;;;;;;;5095590;28;20510;-66
2022/10/23 08:49:15;;;;;;;33.92;18.27;;;;;;;;;;5095476;28;20149;-66
2022/10/23 08:51:43;;;;;;;30.05;17.23;;;;;;;;;;5065277;28;20068;-66
2022/10/23 08:54:15;;;;;;;30.33;18.35;;;;;;;;;;5060434;28;20059;-66
2022/10/23 08:56:42;;;;;;;31.73;17.73;;;;;;;;;;5063630;28;20123;-67
2022/10/23 08:59:19;;;;;;;26.95;16.50;;;;;;;;;;5060242;28;20040;-67
2022/10/23 09:01:49;;;;;;;25.77;16.55;;;;;;;;;;5065006;28;20083;-66
2022/10/23 09:04:16;;;;;;;33.85;17.25;;;;;;;;;;5097707;28;20076;-66
2022/10/23 09:06:48;;;;;;;27.02;15.43;;;;;;;;;;5063336;28;20059;-66
2022/10/23 09:09:14;;;;;;;29.67;17.02;;;;;;;;;;5061220;28;20059;-66
2022/10/23 09:11:45;;;;;;;26.33;15.50;;;;;;;;;;5065991;28;20036;-66
2022/10/23 09:14:30;;;;;;;27.08;16.20;;;;;;;;;;5062157;28;20463;-66
2022/10/23 09:17:13;;;;;;;36.47;16.95;;;;;;;;;;5061661;28;20109;-67
2022/10/23 09:19:39;;;;;;;27.05;15.60;;;;;;;;;;5062835;28;20044;-67
2022/10/23 09:22:06;;;;;;;21.60;15.13;;;;;;;;;;5061571;28;20050;-67
2022/10/23 09:24:32;;;;;;;28.20;15.25;;;;;;;;;;5064108;28;20116;-66
2022/10/23 09:26:59;;;;;;;22.10;14.88;;;;;;;;;;5056332;28;20445;-67
2022/10/23 09:29:25;;;;;;;21.38;13.63;;;;;;;;;;5058046;28;20125;-66
2022/10/23 09:31:52;;;;;;;27.60;14.88;;;;;;;;;;5095574;28;20507;-66
2022/10/23 09:34:20;;;;;;;18.50;14.13;;;;;;;;;;5058025;28;20040;-66
2022/10/23 09:36:51;;;;;;;28.05;14.00;;;;;;;;;;5060168;28;20040;-66
2022/10/23 09:39:25;;;;;;;20.70;12.98;;;;;;;;;;5057614;28;20064;-66
2022/10/23 09:41:51;;;;;;;19.77;13.20;;;;;;;;;;5090929;28;20040;-66
2022/10/23 09:44:20;;;;;;;28.50;13.98;;;;;;;;;;5054429;28;20396;-66
2022/10/23 09:46:47;;;;;;;25.08;12.88;;;;;;;;;;5062265;28;20040;-66
2022/10/23 09:49:17;;;;;;;19.50;13.20;;;;;;;;;;5065449;28;20048;-66
2022/10/23 09:51:50;;;;;;;24.08;11.32;;;;;;;;;;5058525;28;20052;-66
2022/10/23 09:54:18;;;;;;;21.08;10.88;;;;;;;;;;5089454;28;20066;-66
2022/10/23 09:56:47;;;;;;;18.42;10.90;;;;;;;;;;5062346;28;20125;-66
2022/10/23 09:59:13;;;;;;;21.92;10.55;;;;;;;;;;5064515;28;20055;-66
2022/10/23 10:01:47;;;;;;;21.98;11.05;;;;;;;;;;5065820;28;20467;-66
2022/10/23 10:04:13;;;;;;;20.33;10.40;;;;;;;;;;5062932;28;20131;-66
2022/10/23 10:06:40;;;;;;;20.13;10.70;;;;;;;;;;5065272;28;20036;-66
2022/10/23 10:09:12;;;;;;;20.42;9.25;;;;;;;;;;5063666;28;20151;-66
2022/10/23 10:11:41;;;;;;;21.48;10.02;;;;;;;;;;5062494;28;20075;-66
2022/10/23 10:14:08;;;;;;;20.77;11.15;;;;;;;;;;5057039;28;20418;-65
2022/10/23 10:16:43;;;;;;;18.50;11.13;;;;;;;;;;5057317;28;20496;-66
2022/10/23 10:19:26;;;;;;;16.08;10.00;;;;;;;;;;5061341;28;20419;-65
2022/10/23 10:21:58;;;;;;;20.10;9.93;;;;;;;;;;5066881;28;20052;-66
2022/10/23 10:24:27;;;;;;;14.15;8.80;;;;;;;;;;5094235;28;21431;-65
2022/10/23 10:26:54;;;;;;;15.32;8.77;;;;;;;;;;5057684;28;20056;-66
2022/10/23 10:29:39;;;;;;;14.15;9.00;;;;;;;;;;5089149;28;20097;-66
2022/10/23 10:32:16;;;;;;;16.52;9.00;;;;;;;;;;5061750;28;20037;-66
2022/10/23 10:34:50;;;;;;;15.65;8.32;;;;;;;;;;5062491;28;20059;-66
2022/10/23 10:37:35;;;;;;;16.30;9.45;;;;;;;;;;5060462;28;20363;-64
2022/10/23 10:40:02;;;;;;;17.17;8.63;;;;;;;;;;5059291;28;20049;-66
2022/10/23 10:42:32;;;;;;;15.32;7.90;;;;;;;;;;5095541;28;20094;-65
2022/10/23 10:45:07;;;;;;;19.00;8.93;;;;;;;;;;5058290;28;20138;-66
2022/10/23 10:47:41;;;;;;;14.77;8.02;;;;;;;;;;5057111;28;20048;-65
2022/10/23 10:50:07;;;;;;;14.82;8.15;;;;;;;;;;5062016;28;20045;-66
2022/10/23 10:52:46;;;;;;;17.00;7.15;;;;;;;;;;5062829;28;20064;-66
2022/10/23 10:55:13;;;;;;;17.33;7.47;;;;;;;;;;5058156;28;20052;-66
2022/10/23 10:57:41;;;;;;;17.80;6.55;;;;;;;;;;5064068;28;20044;-66
2022/10/23 11:00:16;;;;;;;11.05;6.22;;;;;;;;;;5063716;28;20496;-66
2022/10/23 11:02:45;;;;;;;12.38;6.38;;;;;;;;;;5059461;28;20045;-67
2022/10/23 11:05:15;;;;;;;14.25;5.65;;;;;;;;;;5062766;28;20036;-66
2022/10/23 11:07:48;;;;;;;15.80;5.93;;;;;;;;;;5064451;28;20127;-66
2022/10/23 11:10:16;;;;;;;11.88;5.88;;;;;;;;;;5092979;28;20051;-66
2022/10/23 11:12:43;;;;;;;15.95;5.65;;;;;;;;;;5061410;28;20047;-66
2022/10/23 11:15:17;;;;;;;14.25;5.45;;;;;;;;;;5059449;28;20056;-66
2022/10/23 11:17:45;;;;;;;11.18;5.03;;;;;;;;;;5062594;28;20044;-66
2022/10/23 11:20:25;;;;;;;12.98;4.85;;;;;;;;;;5058053;28;20068;-66
2022/10/23 11:22:57;;;;;;;14.70;5.15;;;;;;;;;;5063741;28;20047;-66
2022/10/23 11:25:31;;;;;;;13.95;4.95;;;;;;;;;;5064813;28;20048;-66
2022/10/23 11:28:18;;;;;;;11.80;5.40;;;;;;;;;;5063612;28;20110;-66
2022/10/23 11:31:02;;;;;;;10.02;4.30;;;;;;;;;;5064762;28;20066;-66
2022/10/23 11:33:39;;;;;;;12.10;4.57;;;;;;;;;;5064285;28;20109;-76
2022/10/23 11:36:13;;;;;;;14.13;3.92;;;;;;;;;;5054705;28;20065;-65
2022/10/23 11:38:41;;;;;;;8.95;4.05;;;;;;;;;;5060065;28;20037;-65
2022/10/23 11:41:19;;;;;;;13.02;4.65;;;;;;;;;;5061244;28;20075;-65
2022/10/23 11:43:48;;;;;;;19.05;4.72;;;;;;;;;;5064312;28;20125;-65
2022/10/23 11:46:28;;;;;;;10.85;3.58;;;;;;;;;;5096197;28;20484;-65
2022/10/23 11:48:55;;;;;;;12.52;4.38;;;;;;;;;;5062212;28;20040;-65
2022/10/23 11:51:29;;;;;;;10.43;3.75;;;;;;;;;;5066398;28;20080;-65
2022/10/23 11:54:06;;;;;;;8.80;4.00;;;;;;;;;;5064173;28;20121;-65
2022/10/23 11:56:33;;;;;;;11.77;3.40;;;;;;;;;;5063175;28;20040;-65
2022/10/23 11:58:59;;;;;;;12.32;3.72;;;;;;;;;;5063039;28;20041;-65
2022/10/23 12:01:26;;;;;;;12.57;3.90;;;;;;;;;;5065422;28;20059;-65
2022/10/23 12:03:54;;;;;;;12.32;4.15;;;;;;;;;;5096646;28;20127;-65
2022/10/23 12:06:23;;;;;;;13.05;4.43;;;;;;;;;;5061362;28;20484;-65
2022/10/23 12:08:52;;;;;;;14.18;4.13;;;;;;;;;;5058474;28;20033;-65
2022/10/23 12:11:24;;;;;;;15.25;4.00;;;;;;;;;;5058166;28;20110;-65
2022/10/23 12:13:51;;;;;;;10.53;3.80;;;;;;;;;;5064528;28;20076;-65
2022/10/23 12:16:17;;;;;;;9.02;3.88;;;;;;;;;;5064432;28;20299;-65
2022/10/23 12:18:46;;;;;;;9.82;4.13;;;;;;;;;;5068633;28;20044;-65
2022/10/23 12:21:16;;;;;;;8.10;3.53;;;;;;;;;;5068143;28;20037;-65
2022/10/23 12:23:43;;;;;;;9.85;4.38;;;;;;;;;;5068512;28;20442;-65
2022/10/23 12:26:11;;;;;;;12.73;4.10;;;;;;;;;;5066166;28;20037;-65
2022/10/23 12:28:43;;;;;;;10.38;4.35;;;;;;;;;;5062716;28;20124;-65
2022/10/23 12:31:17;;;;;;;14.90;4.35;;;;;;;;;;5063563;28;20040;-65
2022/10/23 12:33:50;;;;;;;10.48;4.32;;;;;;;;;;5063484;28;20132;-65
2022/10/23 12:36:26;;;;;;;9.35;4.50;;;;;;;;;;5054215;28;20124;-65
2022/10/23 12:38:54;;;;;;;7.82;4.20;;;;;;;;;;5055330;28;20044;-65
2022/10/23 12:41:25;;;;;;;12.27;4.47;;;;;;;;;;5070175;28;20067;-65
2022/10/23 12:43:54;;;;;;;10.95;4.03;;;;;;;;;;5064497;28;20722;-65
2022/10/23 12:46:27;;;;;;;10.18;3.85;;;;;;;;;;5098412;28;20044;-65
2022/10/23 12:48:55;;;;;;;11.03;4.00;;;;;;;;;;5099363;28;20097;-65
2022/10/23 12:51:24;;;;;;;10.77;4.22;;;;;;;;;;5068801;28;20802;-65
2022/10/23 12:53:50;;;;;;;9.13;4.10;;;;;;;;;;5070767;28;20131;-65
2022/10/23 12:56:17;;;;;;;20.13;5.07;;;;;;;;;;5070916;28;20037;-65
2022/10/23 12:58:49;;;;;;;7.88;4.15;;;;;;;;;;5053152;28;20125;-65
2022/10/23 13:01:26;;;;;;;10.80;4.05;;;;;;;;;;5070018;28;20040;-65
2022/10/23 13:03:57;;;;;;;9.13;4.25;;;;;;;;;;5069976;28;20053;-65
2022/10/23 13:06:23;;;;;;;9.95;3.78;;;;;;;;;;5099572;28;20098;-65
2022/10/23 13:08:49;;;;;;;8.57;3.70;;;;;;;;;;5097511;28;20127;-65
2022/10/23 13:11:17;;;;;;;10.57;4.50;;;;;;;;;;5066157;28;20476;-65
2022/10/23 13:13:44;;;;;;;8.48;4.45;;;;;;;;;;5065386;28;20043;-65
2022/10/23 13:16:14;;;;;;;14.63;4.85;;;;;;;;;;5064974;28;20359;-65
2022/10/23 13:18:41;;;;;;;13.85;4.40;;;;;;;;;;5066487;28;20040;-65
2022/10/23 13:21:13;;;;;;;9.25;3.80;;;;;;;;;;5089931;28;20044;-65
2022/10/23 13:23:41;;;;;;;11.93;4.55;;;;;;;;;;5053736;28;20124;-65
2022/10/23 13:26:23;;;;;;;12.43;3.88;;;;;;;;;;5068726;28;20071;-65
2022/10/23 13:28:49;;;;;;;9.38;4.25;;;;;;;;;;5099333;28;20401;-65
2022/10/23 13:31:16;;;;;;;14.35;3.78;;;;;;;;;;5068911;28;20446;-65
2022/10/23 13:33:43;;;;;;;8.23;4.00;;;;;;;;;;5066473;28;20480;-65
2022/10/23 13:36:12;;;;;;;11.05;3.97;;;;;;;;;;5066008;28;20037;-65
2022/10/23 13:38:40;;;;;;;13.02;4.50;;;;;;;;;;5067671;28;20052;-65
2022/10/23 13:41:10;;;;;;;8.88;4.30;;;;;;;;;;5063459;28;20056;-65
2022/10/23 13:43:37;;;;;;;10.88;4.20;;;;;;;;;;5065431;28;20495;-65
2022/10/23 13:46:03;;;;;;;11.75;4.72;;;;;;;;;;5068320;28;20037;-65
2022/10/23 13:48:29;;;;;;;11.43;4.10;;;;;;;;;;5066146;28;20056;-65
2022/10/23 13:51:01;;;;;;;12.88;4.70;;;;;;;;;;5064570;28;20047;-65
2022/10/23 13:53:29;;;;;;;9.65;4.03;;;;;;;;;;5063936;28;20132;-65
2022/10/23 13:55:55;;;;;;;16.70;3.95;;;;;;;;;;5096997;28;20059;-65
2022/10/23 13:58:21;;;;;;;10.45;5.15;;;;;;;;;;5066367;28;20048;-65
2022/10/23 14:00:49;;;;;;;9.60;3.30;;;;;;;;;;5065526;28;20788;-65
2022/10/23 14:03:16;;;;;;;7.28;4.10;;;;;;;;;;5066688;28;20115;-65
2022/10/23 14:05:42;;;;;;;10.98;3.90;;;;;;;;;;5063940;28;20087;-65
2022/10/23 14:08:08;;;;;;;11.68;3.72;;;;;;;;;;5061458;28;20116;-65
2022/10/23 14:10:34;;;;;;;8.27;3.88;;;;;;;;;;5066970;28;20387;-65
2022/10/23 14:13:00;;;;;;;12.10;4.00;;;;;;;;;;5066211;28;20124;-65
2022/10/23 14:15:26;;;;;;;10.93;3.88;;;;;;;;;;5064089;28;20150;-65
2022/10/23 14:17:53;;;;;;;9.57;3.65;;;;;;;;;;5065241;28;20037;-65
2022/10/23 14:20:19;;;;;;;11.68;3.72;;;;;;;;;;5063834;28;20032;-65
2022/10/23 14:22:45;;;;;;;6.53;3.10;;;;;;;;;;5065922;28;20110;-65
2022/10/23 14:25:11;;;;;;;11.00;4.05;;;;;;;;;;5062535;28;20065;-65
2022/10/23 14:27:37;;;;;;;10.27;3.17;;;;;;;;;;5063898;28;20052;-65